createdAt,value
2022-11-17T00:02:16.457Z,7.48
2022-11-17T00:04:44.753Z,7.56
2022-11-17T00:07:11.231Z,7.31
2022-11-17T00:09:37.774Z,7.08
2022-11-17T00:12:23.041Z,7.51
2022-11-17T00:14:49.707Z,7.59
2022-11-17T00:17:16.126Z,7.64
2022-11-17T00:20:00.964Z,7.01
2022-11-17T00:22:31.012Z,7.53
2022-11-17T00:24:57.763Z,7.37
2022-11-17T00:27:24.174Z,6.77
2022-11-17T00:29:50.593Z,6.36
2022-11-17T00:32:37.895Z,7.37
2022-11-17T00:35:05.434Z,6.51
2022-11-17T00:37:37.857Z,5.90
2022-11-17T00:40:06.018Z,7.28
2022-11-17T00:42:32.433Z,7.42
2022-11-17T00:44:58.834Z,7.52
2022-11-17T00:47:25.180Z,7.03
2022-11-17T00:49:51.609Z,7.49
2022-11-17T00:52:18.027Z,6.04
2022-11-17T00:54:44.432Z,7.25
2022-11-17T00:57:10.874Z,7.47
2022-11-17T00:59:37.378Z,7.59
2022-11-17T01:02:03.828Z,7.57
2022-11-17T01:04:30.261Z,7.51
2022-11-17T01:06:56.750Z,7.45
2022-11-17T01:09:24.036Z,7.57
2022-11-17T01:11:52.292Z,7.53
2022-11-17T01:14:22.743Z,7.52
2022-11-17T01:16:49.888Z,7.54
2022-11-17T01:19:18.552Z,6.60
2022-11-17T01:21:46.215Z,7.37
2022-11-17T01:24:13.676Z,7.47
2022-11-17T01:26:40.836Z,6.31
2022-11-17T01:29:08.569Z,6.50
2022-11-17T01:31:38.569Z,7.21
2022-11-17T01:34:05.877Z,7.34
2022-11-17T01:36:53.912Z,6.92
2022-11-17T01:39:20.660Z,7.15
2022-11-17T01:41:47.081Z,7.20
2022-11-17T01:44:51.337Z,6.07
2022-11-17T01:47:22.960Z,7.12
2022-11-17T01:49:54.767Z,7.37
2022-11-17T01:52:22.948Z,5.47
2022-11-17T01:54:49.680Z,6.35
2022-11-17T01:57:24.785Z,7.18
2022-11-17T01:59:56.621Z,7.29
2022-11-17T02:02:23.616Z,7.36
2022-11-17T02:05:13.434Z,7.03
2022-11-17T02:07:42.905Z,7.32
2022-11-17T02:10:09.904Z,7.32
2022-11-17T02:12:36.987Z,7.36
2022-11-17T02:15:04.530Z,7.39
2022-11-17T02:17:40.754Z,7.40
2022-11-17T02:20:11.055Z,7.37
2022-11-17T02:23:03.141Z,6.88
2022-11-17T02:25:50.903Z,6.80
2022-11-17T02:28:28.851Z,7.28
2022-11-17T02:31:17.352Z,7.35
2022-11-17T02:34:06.703Z,7.07
2022-11-17T02:37:18.426Z,7.32
2022-11-17T02:39:56.271Z,7.36
2022-11-17T02:43:00.347Z,7.38
2022-11-17T02:45:35.982Z,7.12
2022-11-17T02:48:07.474Z,7.25
2022-11-17T02:50:35.412Z,7.33
2022-11-17T02:53:03.024Z,7.37
2022-11-17T02:55:33.194Z,7.36
2022-11-17T02:57:59.572Z,7.33
2022-11-17T03:00:28.092Z,7.35
2022-11-17T03:03:10.259Z,7.37
2022-11-17T03:05:43.448Z,5.85
2022-11-17T03:08:27.599Z,6.61
2022-11-17T03:11:03.019Z,7.17
2022-11-17T03:13:51.322Z,7.27
2022-11-17T03:16:17.783Z,7.03
2022-11-17T03:18:53.368Z,7.24
2022-11-17T03:21:34.850Z,7.30
2022-11-17T03:24:23.668Z,7.29
2022-11-17T03:27:00.250Z,7.23
2022-11-17T03:29:31.739Z,7.28
2022-11-17T03:32:02.017Z,7.30
2022-11-17T03:34:32.954Z,7.29
2022-11-17T03:37:03.824Z,7.36
2022-11-17T03:39:36.092Z,6.87
2022-11-17T03:42:08.581Z,7.05
2022-11-17T03:44:39.186Z,7.12
2022-11-17T03:47:09.393Z,5.28
2022-11-17T03:49:47.469Z,6.82
2022-11-17T03:52:13.924Z,7.15
2022-11-17T03:54:41.094Z,6.63
2022-11-17T03:57:29.458Z,6.52
2022-11-17T04:00:01.098Z,7.10
2022-11-17T04:02:28.054Z,7.19
2022-11-17T04:05:06.537Z,7.16
2022-11-17T04:07:35.422Z,6.11
2022-11-17T04:10:02.346Z,6.08
2022-11-17T04:12:47.528Z,6.61
2022-11-17T04:15:32.262Z,7.02
2022-11-17T04:17:58.906Z,7.00
2022-11-17T04:20:25.932Z,7.06
2022-11-17T04:23:07.729Z,7.17
2022-11-17T04:25:59.989Z,7.18
2022-11-17T04:28:37.102Z,7.15
2022-11-17T04:31:11.195Z,7.07
2022-11-17T04:33:40.148Z,7.11
2022-11-17T04:36:07.079Z,7.16
2022-11-17T04:38:33.523Z,7.15
2022-11-17T04:41:26.534Z,7.00
2022-11-17T04:43:53.664Z,7.18
2022-11-17T04:46:21.772Z,7.17
2022-11-17T04:48:48.893Z,7.18
2022-11-17T04:51:18.388Z,7.12
2022-11-17T04:53:45.087Z,7.10
2022-11-17T04:56:11.790Z,7.10
2022-11-17T04:58:38.159Z,7.21
2022-11-17T05:01:13.807Z,7.18
2022-11-17T05:03:42.474Z,7.17
2022-11-17T05:06:11.023Z,7.26
2022-11-17T05:08:38.864Z,7.02
2022-11-17T05:11:25.560Z,7.15
2022-11-17T05:13:52.297Z,6.75
2022-11-17T05:16:38.417Z,6.62
2022-11-17T05:19:06.939Z,7.10
2022-11-17T05:21:33.347Z,6.04
2022-11-17T05:24:00.047Z,6.72
2022-11-17T05:26:32.816Z,7.13
2022-11-17T05:29:01.463Z,7.15
2022-11-17T05:31:28.925Z,7.19
2022-11-17T05:33:56.161Z,7.13
2022-11-17T05:36:24.084Z,6.88
2022-11-17T05:38:50.903Z,7.06
2022-11-17T05:41:18.445Z,7.08
2022-11-17T05:43:45.884Z,7.12
2022-11-17T05:46:12.995Z,7.08
2022-11-17T05:48:40.238Z,5.80
2022-11-17T05:51:06.869Z,6.74
2022-11-17T05:53:34.137Z,7.06
2022-11-17T05:56:28.145Z,6.80
2022-11-17T05:59:06.653Z,7.08
2022-11-17T06:01:35.501Z,7.08
2022-11-17T06:04:04.589Z,6.36
2022-11-17T06:06:31.686Z,6.53
2022-11-17T06:08:58.097Z,6.86
2022-11-17T06:11:24.480Z,6.95
2022-11-17T06:13:50.935Z,7.02
2022-11-17T06:16:21.432Z,7.07
2022-11-17T06:18:54.888Z,7.08
2022-11-17T06:21:21.588Z,6.99
2022-11-17T06:23:49.329Z,7.07
2022-11-17T06:26:16.290Z,7.09
2022-11-17T06:28:46.154Z,6.62
2022-11-17T06:31:14.424Z,6.96
2022-11-17T06:33:41.335Z,7.05
2022-11-17T06:36:08.822Z,7.07
2022-11-17T06:38:36.233Z,7.01
2022-11-17T06:41:08.898Z,7.03
2022-11-17T06:43:38.310Z,6.48
2022-11-17T06:46:05.929Z,6.15
2022-11-17T06:48:35.877Z,6.74
2022-11-17T06:51:04.675Z,6.97
2022-11-17T06:53:33.339Z,6.76
2022-11-17T06:56:10.837Z,6.54
2022-11-17T06:58:39.733Z,6.87
2022-11-17T07:01:11.598Z,7.06
2022-11-17T07:03:39.802Z,6.87
2022-11-17T07:06:08.275Z,6.83
2022-11-17T07:08:35.735Z,6.87
2022-11-17T07:11:08.107Z,6.89
2022-11-17T07:13:35.107Z,7.04
2022-11-17T07:16:13.117Z,7.03
2022-11-17T07:18:41.708Z,7.10
2022-11-17T07:21:13.697Z,7.03
2022-11-17T07:23:41.852Z,6.99
2022-11-17T07:26:09.072Z,7.06
2022-11-17T07:28:35.991Z,7.13
2022-11-17T07:31:04.874Z,7.01
2022-11-17T07:33:31.747Z,7.07
2022-11-17T07:36:10.157Z,6.68
2022-11-17T07:38:38.857Z,6.92
2022-11-17T07:41:07.049Z,7.12
2022-11-17T07:43:35.108Z,7.08
2022-11-17T07:46:10.681Z,7.21
2022-11-17T07:48:37.756Z,6.99
2022-11-17T07:51:05.716Z,7.10
2022-11-17T07:53:34.467Z,7.11
2022-11-17T07:56:09.617Z,7.10
2022-11-17T07:58:37.127Z,7.33
2022-11-17T08:01:09.280Z,7.14
2022-11-17T08:03:35.996Z,7.12
2022-11-17T08:06:03.943Z,7.08
2022-11-17T08:08:30.512Z,7.10
2022-11-17T08:10:57.051Z,7.42
2022-11-17T08:13:24.221Z,7.36
2022-11-17T08:15:56.717Z,7.14
2022-11-17T08:18:23.462Z,7.40
2022-11-17T08:20:49.839Z,7.76
2022-11-17T08:23:16.383Z,7.58
2022-11-17T08:25:42.901Z,7.32
2022-11-17T08:28:09.382Z,7.30
2022-11-17T08:30:35.901Z,7.43
2022-11-17T08:33:02.413Z,8.58
2022-11-17T08:35:31.820Z,8.12
2022-11-17T08:38:02.336Z,7.59
2022-11-17T08:40:28.958Z,7.38
2022-11-17T08:43:00.605Z,7.38
2022-11-17T08:45:27.564Z,9.25
2022-11-17T08:47:55.920Z,9.20
2022-11-17T08:50:22.411Z,10.61
2022-11-17T08:52:48.861Z,9.90
2022-11-17T08:55:15.544Z,8.18
2022-11-17T08:57:42.068Z,10.46
2022-11-17T09:00:08.989Z,10.82
2022-11-17T09:02:36.797Z,10.30
2022-11-17T09:05:03.678Z,8.50
2022-11-17T09:07:36.609Z,11.74
2022-11-17T09:10:04.893Z,14.66
2022-11-17T09:12:31.498Z,14.65
2022-11-17T09:14:57.894Z,14.29
2022-11-17T09:17:24.321Z,13.20
2022-11-17T09:19:50.719Z,10.37
2022-11-17T09:22:17.112Z,10.54
2022-11-17T09:24:43.679Z,11.44
2022-11-17T09:27:10.056Z,10.43
2022-11-17T09:29:36.453Z,8.93
2022-11-17T09:32:02.938Z,9.22
2022-11-17T09:34:29.487Z,9.07
2022-11-17T09:36:56.208Z,8.67
2022-11-17T09:39:22.656Z,8.93
2022-11-17T09:41:51.802Z,8.48
2022-11-17T09:44:44.708Z,8.33
2022-11-17T09:47:32.479Z,8.28
2022-11-17T09:50:19.735Z,8.22
2022-11-17T09:53:20.863Z,8.07
2022-11-17T09:55:51.151Z,8.10
2022-11-17T09:58:56.899Z,8.12
2022-11-17T10:01:23.416Z,8.01
2022-11-17T10:03:51.368Z,8.74
2022-11-17T10:06:22.126Z,8.41
2022-11-17T10:09:00.564Z,8.07
2022-11-17T10:11:33.149Z,8.05
2022-11-17T10:14:02.742Z,8.10
2022-11-17T10:16:30.073Z,8.16
2022-11-17T10:18:57.196Z,9.79
2022-11-17T10:21:23.767Z,8.55
2022-11-17T10:23:59.666Z,8.42
2022-11-17T10:26:26.400Z,8.55
2022-11-17T10:29:22.134Z,8.18
2022-11-17T10:31:49.009Z,9.49
2022-11-17T10:34:40.566Z,10.33
2022-11-17T10:37:13.333Z,14.39
2022-11-17T10:39:42.045Z,9.99
2022-11-17T10:42:20.795Z,13.21
2022-11-17T10:44:51.312Z,12.52
2022-11-17T10:47:39.490Z,10.93
2022-11-17T10:50:17.825Z,13.03
2022-11-17T10:52:44.492Z,12.77
2022-11-17T10:55:20.073Z,12.50
2022-11-17T10:57:51.171Z,11.98
2022-11-17T11:00:29.795Z,12.15
2022-11-17T11:03:04.600Z,12.61
2022-11-17T11:05:31.006Z,12.18
2022-11-17T11:08:22.418Z,11.32
2022-11-17T11:10:52.921Z,11.23
2022-11-17T11:13:25.501Z,11.07
2022-11-17T11:15:53.472Z,10.79
2022-11-17T11:18:20.680Z,10.34
2022-11-17T11:21:07.681Z,9.52
2022-11-17T11:23:56.133Z,9.18
2022-11-17T11:26:40.911Z,9.08
2022-11-17T11:29:14.812Z,8.97
2022-11-17T11:31:45.417Z,8.91
2022-11-17T11:34:25.354Z,8.95
2022-11-17T11:37:09.214Z,8.74
2022-11-17T11:39:54.380Z,8.85
2022-11-17T11:42:43.962Z,10.15
2022-11-17T11:45:22.716Z,10.84
2022-11-17T11:48:04.248Z,10.80
2022-11-17T11:50:52.690Z,10.74
2022-11-17T11:53:30.854Z,10.72
2022-11-17T11:56:09.982Z,10.62
2022-11-17T11:58:41.510Z,10.52
2022-11-17T12:01:12.237Z,9.71
2022-11-17T12:03:58.290Z,9.24
2022-11-17T12:06:43.009Z,9.82
2022-11-17T12:09:14.938Z,9.70
2022-11-17T12:12:01.086Z,9.06
2022-11-17T12:14:39.359Z,9.68
2022-11-17T12:17:14.838Z,10.34
2022-11-17T12:19:45.056Z,10.69
2022-11-17T12:22:32.229Z,10.92
2022-11-17T12:25:17.639Z,11.04
2022-11-17T12:27:45.972Z,10.92
2022-11-17T12:30:30.787Z,11.03
2022-11-17T12:32:59.310Z,11.03
2022-11-17T12:35:26.217Z,11.06
2022-11-17T12:38:17.603Z,9.98
2022-11-17T12:40:52.911Z,9.66
2022-11-17T12:43:23.902Z,9.72
2022-11-17T12:45:53.748Z,9.89
2022-11-17T12:48:35.354Z,10.40
2022-11-17T12:51:30.417Z,10.55
2022-11-17T12:54:14.342Z,10.08
2022-11-17T12:56:50.159Z,9.14
2022-11-17T12:59:53.982Z,10.20
2022-11-17T13:02:53.041Z,10.68
2022-11-17T13:05:22.415Z,10.54
2022-11-17T13:07:51.376Z,10.48
2022-11-17T13:10:30.481Z,10.84
2022-11-17T13:13:16.602Z,10.22
2022-11-17T13:15:45.686Z,9.44
2022-11-17T13:18:40.450Z,10.98
2022-11-17T13:21:28.989Z,10.92
2022-11-17T13:23:56.538Z,9.98
2022-11-17T13:26:24.501Z,9.89
2022-11-17T13:29:09.762Z,10.49
2022-11-17T13:31:36.148Z,10.75
2022-11-17T13:34:21.133Z,11.07
2022-11-17T13:36:59.125Z,10.74
2022-11-17T13:39:28.996Z,11.04
2022-11-17T13:42:01.660Z,10.06
2022-11-17T13:44:31.482Z,10.86
2022-11-17T13:47:20.670Z,10.37
2022-11-17T13:49:47.844Z,9.47
2022-11-17T13:52:29.806Z,10.01
2022-11-17T13:55:01.742Z,10.75
2022-11-17T13:57:30.116Z,9.87
2022-11-17T14:00:05.185Z,9.52
2022-11-17T14:02:32.089Z,9.68
2022-11-17T14:05:13.402Z,10.36
2022-11-17T14:07:41.770Z,10.28
2022-11-17T14:10:21.210Z,10.62
2022-11-17T14:13:01.086Z,10.14
2022-11-17T14:15:31.458Z,10.01
2022-11-17T14:18:00.434Z,10.44
2022-11-17T14:20:31.287Z,10.24
2022-11-17T14:23:08.753Z,9.90
2022-11-17T14:25:40.600Z,10.30
2022-11-17T14:28:18.305Z,9.97
2022-11-17T14:30:49.862Z,9.42
2022-11-17T14:33:16.834Z,9.44
2022-11-17T14:35:45.395Z,10.05
2022-11-17T14:38:22.100Z,9.71
2022-11-17T14:40:53.666Z,9.88
2022-11-17T14:43:21.574Z,10.00
2022-11-17T14:45:49.919Z,9.73
2022-11-17T14:48:20.439Z,9.60
2022-11-17T14:50:47.999Z,9.57
2022-11-17T14:53:15.162Z,9.85
2022-11-17T14:55:42.028Z,9.79
2022-11-17T14:58:10.107Z,9.55
2022-11-17T15:00:36.798Z,9.59
2022-11-17T15:03:03.492Z,9.59
2022-11-17T15:05:30.337Z,9.44
2022-11-17T15:07:58.064Z,9.58
2022-11-17T15:10:24.571Z,9.44
2022-11-17T15:12:51.042Z,9.63
2022-11-17T15:15:18.265Z,9.52
2022-11-17T15:17:44.731Z,9.47
2022-11-17T15:20:11.923Z,9.42
2022-11-17T15:22:39.096Z,9.29
2022-11-17T15:25:06.094Z,9.29
2022-11-17T15:27:32.541Z,9.32
2022-11-17T15:29:59.169Z,9.29
2022-11-17T15:32:26.362Z,9.24
2022-11-17T15:34:52.897Z,9.33
2022-11-17T15:37:19.620Z,9.35
2022-11-17T15:39:46.589Z,9.43
2022-11-17T15:42:13.054Z,8.99
2022-11-17T15:44:39.547Z,9.25
2022-11-17T15:47:06.443Z,9.34
2022-11-17T15:49:33.112Z,9.33
2022-11-17T15:51:59.923Z,9.26
2022-11-17T15:54:26.478Z,9.24
2022-11-17T15:56:53.233Z,9.25
2022-11-17T15:59:20.181Z,8.55
2022-11-17T16:01:47.812Z,8.08
2022-11-17T16:04:17.853Z,9.05
2022-11-17T16:06:46.739Z,9.17
2022-11-17T16:09:13.978Z,9.19
2022-11-17T16:11:41.306Z,8.46
2022-11-17T16:14:08.401Z,7.40
2022-11-17T16:16:38.314Z,8.19
2022-11-17T16:19:06.194Z,8.72
2022-11-17T16:21:35.147Z,9.02
2022-11-17T16:24:02.158Z,9.07
2022-11-17T16:26:29.823Z,9.14
2022-11-17T16:29:01.561Z,9.12
2022-11-17T16:31:29.866Z,9.13
2022-11-17T16:34:01.395Z,9.13
2022-11-17T16:36:36.546Z,9.23
2022-11-17T16:39:05.647Z,8.54
2022-11-17T16:41:37.614Z,8.77
2022-11-17T16:44:08.765Z,8.98
2022-11-17T16:46:35.440Z,9.11
2022-11-17T16:49:04.712Z,9.14
2022-11-17T16:51:31.530Z,9.06
2022-11-17T16:54:00.795Z,9.10
2022-11-17T16:56:28.182Z,9.07
2022-11-17T16:58:54.914Z,9.08
2022-11-17T17:01:24.795Z,9.08
2022-11-17T17:03:59.569Z,9.07
2022-11-17T17:06:27.450Z,9.09
2022-11-17T17:08:55.687Z,9.09
2022-11-17T17:11:22.677Z,9.07
2022-11-17T17:13:49.493Z,9.05
2022-11-17T17:16:18.861Z,9.08
2022-11-17T17:18:46.285Z,9.07
2022-11-17T17:21:19.140Z,9.09
2022-11-17T17:23:46.489Z,9.08
2022-11-17T17:26:18.511Z,9.10
2022-11-17T17:28:47.169Z,9.09
2022-11-17T17:31:21.068Z,9.07
2022-11-17T17:33:50.727Z,9.09
2022-11-17T17:36:20.270Z,9.13
2022-11-17T17:38:51.804Z,9.07
2022-11-17T17:41:23.227Z,6.38
2022-11-17T17:44:05.054Z,8.18
2022-11-17T17:46:34.638Z,8.75
2022-11-17T17:49:01.589Z,8.89
2022-11-17T17:51:29.411Z,8.88
2022-11-17T17:54:00.985Z,8.91
2022-11-17T17:56:30.626Z,8.84
2022-11-17T17:58:57.955Z,8.91
2022-11-17T18:01:27.040Z,8.87
2022-11-17T18:04:00.296Z,6.89
2022-11-17T18:06:28.230Z,7.23
2022-11-17T18:08:55.004Z,7.97
2022-11-17T18:11:22.427Z,8.65
2022-11-17T18:13:51.303Z,7.62
2022-11-17T18:16:21.690Z,8.59
2022-11-17T18:18:49.066Z,8.69
2022-11-17T18:21:18.179Z,8.79
2022-11-17T18:23:45.436Z,7.97
2022-11-17T18:26:19.895Z,7.51
2022-11-17T18:28:55.614Z,8.50
2022-11-17T18:31:25.382Z,8.70
2022-11-17T18:33:52.463Z,6.34
2022-11-17T18:36:21.528Z,7.90
2022-11-17T18:38:48.517Z,6.93
2022-11-17T18:41:17.154Z,5.93
2022-11-17T18:43:44.524Z,7.82
2022-11-17T18:46:13.390Z,8.47
2022-11-17T18:48:42.839Z,8.62
2022-11-17T18:51:20.529Z,8.56
2022-11-17T18:53:48.423Z,8.64
2022-11-17T18:56:17.942Z,8.66
2022-11-17T18:58:44.664Z,8.65
2022-11-17T19:01:19.251Z,7.49
2022-11-17T19:03:48.389Z,8.43
2022-11-17T19:06:16.463Z,8.37
2022-11-17T19:08:43.616Z,7.94
2022-11-17T19:11:11.633Z,8.49
2022-11-17T19:13:39.871Z,8.60
2022-11-17T19:16:09.352Z,8.63
2022-11-17T19:18:36.437Z,8.71
2022-11-17T19:21:11.603Z,6.59
2022-11-17T19:23:40.738Z,8.16
2022-11-17T19:26:12.735Z,8.44
2022-11-17T19:28:39.990Z,8.55
2022-11-17T19:31:08.675Z,8.54
2022-11-17T19:33:36.813Z,8.50
2022-11-17T19:36:12.373Z,8.62
2022-11-17T19:38:39.839Z,8.55
2022-11-17T19:41:08.712Z,8.24
2022-11-17T19:43:41.696Z,8.48
2022-11-17T19:46:16.387Z,8.58
2022-11-17T19:48:44.196Z,7.92
2022-11-17T19:51:23.566Z,8.47
2022-11-17T19:53:52.472Z,8.49
2022-11-17T19:56:20.068Z,8.50
2022-11-17T19:58:47.076Z,7.71
2022-11-17T20:01:16.570Z,7.52
2022-11-17T20:03:43.265Z,8.32
2022-11-17T20:06:11.711Z,8.51
2022-11-17T20:08:38.221Z,8.47
2022-11-17T20:11:13.084Z,8.47
2022-11-17T20:13:39.891Z,8.51
2022-11-17T20:16:12.305Z,7.57
2022-11-17T20:18:39.761Z,7.57
2022-11-17T20:21:07.355Z,8.28
2022-11-17T20:23:34.837Z,8.41
2022-11-17T20:26:08.865Z,8.42
2022-11-17T20:28:36.958Z,8.42
2022-11-17T20:31:09.771Z,8.42
2022-11-17T20:33:40.157Z,8.43
2022-11-17T20:36:08.704Z,7.62
2022-11-17T20:38:36.031Z,8.28
2022-11-17T20:41:03.773Z,6.78
2022-11-17T20:43:30.359Z,8.02
2022-11-17T20:45:57.486Z,8.15
2022-11-17T20:48:24.802Z,7.77
2022-11-17T20:51:07.842Z,8.24
2022-11-17T20:53:34.547Z,8.06
2022-11-17T20:56:02.898Z,8.31
2022-11-17T20:58:29.947Z,8.37
2022-11-17T21:00:56.475Z,8.36
2022-11-17T21:03:23.498Z,7.78
2022-11-17T21:05:59.023Z,6.05
2022-11-17T21:08:37.237Z,7.94
2022-11-17T21:11:07.085Z,8.16
2022-11-17T21:13:34.700Z,7.32
2022-11-17T21:16:15.105Z,8.13
2022-11-17T21:18:47.189Z,8.22
2022-11-17T21:21:14.313Z,8.21
2022-11-17T21:23:41.721Z,8.02
2022-11-17T21:26:13.089Z,8.27
2022-11-17T21:28:41.040Z,7.63
2022-11-17T21:31:15.971Z,7.81
2022-11-17T21:33:43.977Z,8.15
2022-11-17T21:36:13.277Z,8.25
2022-11-17T21:38:41.637Z,8.27
2022-11-17T21:41:20.137Z,8.32
2022-11-17T21:43:48.770Z,8.27
2022-11-17T21:46:20.444Z,8.21
2022-11-17T21:48:48.060Z,8.20
2022-11-17T21:51:19.989Z,8.21
2022-11-17T21:53:46.984Z,8.20
2022-11-17T21:56:13.851Z,8.20
2022-11-17T21:58:40.320Z,8.27
2022-11-17T22:01:16.126Z,8.20
2022-11-17T22:03:42.970Z,7.62
2022-11-17T22:06:12.835Z,6.91
2022-11-17T22:08:41.685Z,7.63
2022-11-17T22:11:10.594Z,8.03
2022-11-17T22:13:37.226Z,7.11
2022-11-17T22:16:14.152Z,6.89
2022-11-17T22:18:41.908Z,6.90
2022-11-17T22:21:09.391Z,7.12
2022-11-17T22:23:36.301Z,6.92
2022-11-17T22:26:06.258Z,6.63
2022-11-17T22:28:32.779Z,7.77
2022-11-17T22:30:59.189Z,7.92
2022-11-17T22:33:25.592Z,7.97
2022-11-17T22:35:52.175Z,7.98
2022-11-17T22:38:18.709Z,8.02
2022-11-17T22:40:45.176Z,7.81
2022-11-17T22:43:14.971Z,7.62
2022-11-17T22:45:42.516Z,7.48
2022-11-17T22:48:09.171Z,8.02
2022-11-17T22:50:36.200Z,7.77
2022-11-17T22:53:03.001Z,7.92
2022-11-17T22:55:29.787Z,7.66
2022-11-17T22:57:56.257Z,7.78
2022-11-17T23:00:22.898Z,7.78
2022-11-17T23:02:49.488Z,7.77
2022-11-17T23:05:16.190Z,7.47
2022-11-17T23:07:42.721Z,7.69
2022-11-17T23:10:09.843Z,7.50
2022-11-17T23:12:36.974Z,7.18
2022-11-17T23:15:03.884Z,7.45
2022-11-17T23:17:30.408Z,7.14
2022-11-17T23:19:56.823Z,6.91
2022-11-17T23:22:23.270Z,7.02
2022-11-17T23:24:49.699Z,7.09
2022-11-17T23:27:16.138Z,7.48
2022-11-17T23:29:42.581Z,7.92
2022-11-17T23:32:09.476Z,7.91
2022-11-17T23:34:35.862Z,8.03
2022-11-17T23:37:03.928Z,8.05
2022-11-17T23:39:30.571Z,8.08
2022-11-17T23:41:56.930Z,8.02
2022-11-17T23:44:23.331Z,8.11
2022-11-17T23:46:49.709Z,8.13
2022-11-17T23:49:16.620Z,7.86
2022-11-17T23:51:43.284Z,8.07
2022-11-17T23:54:13.139Z,8.14
2022-11-17T23:56:40.233Z,8.12
2022-11-17T23:59:08.125Z,8.19
